Angra Dos Reis, Brazil

2:29 PM BRT on July 22, 2014 (GMT -0300)
Santa Cruz Air Base (SBSC) Elev 10 ft | 22.93 °S, 43.72 °W | Change Station

Current weather conditions updated 29 minutes ago

Clear
Clear
82 °F
Feels Like 82 °F
N
10
Wind Variable Wind from NNE

Today is forecast to be Much Warmer than yesterday.

Today
High -- | Low -- °F
--% Chance of Precip.
Yesterday
High -- | Low -- °F
Precip. -- in
6:35 AM 5:31 PM
Waning Crescent, 16% visible
Pressure 30.12 in
Visibility -9999.0 miles
Clouds
Heat Index 82 °F
Dew Point 55 °F
Humidity 39%
Rainfall 0.00 in
Snow Depth Not available.
UV Not available.
Pollen Not available.
Air Quality Not available.
Flu Activity Not available.
METAR SBSC 221700Z 02009KT CAVOK 28/13 Q1020

More Conditions Fewer Conditions

Pressure 30.12 in
Visibility -9999.0 miles
Clouds
Heat Index 82 °F
Dew Point 55 °F
Humidity 39%
Rainfall 0.00 in
Snow Depth Not available.
UV Not available.
Pollen Not available.
Air Quality Not available.
Flu Activity Not available.
METAR SBSC 221700Z 02009KT CAVOK 28/13 Q1020

More Conditions Fewer Conditions

10-Day Weather Forecast

LIGHTNING

Thunderstorms are forecast for your area. Cloud conditions might be right for producing strikes in the next few days, though lightning itself cannot be forecasted.

Lightning is a visible electrical discharge produced by a thunderstorm, based on the build up of oppositely charged particles within a cloud and from cloud to ground.

Know how to stay safe in a lightning storm.

Check out these Lightning WunderPhotos!

Almanac

Astronomy

Jul. 22, 2014 Rise Set
Actual Time 6:35 AM BRT 5:31 PM BRT
Civil Twilight 6:11 AM BRT 5:55 PM BRT
Nautical Twilight 5:44 AM BRT 6:23 PM BRT
Astronomical Twilight 5:17 AM BRT 6:50 PM BRT
Moon 2:52 AM BRT 2:09 PM BRT
Length of Visible Light 11h 43m
Length of Day
10h 55m
Tomorrow will be 0m 48s longer.
Waning Crescent, 16% of the Moon is Illuminated
Today
Waning Crescent
Jul 26
New
Aug 3
First Quarter
Aug 10
Full
Aug 17
Last Quarter

Today's Extremes

Country Highs Country Lows

Community

WunderPhotos

Upload Photos

1,736,295 photos uploaded!

Nearby

Snow Depth

Not available.

Earthquake Activity

City Distance Mag. Time & Date
No recent earthquake activity has been reported nearby.
Minimum magnitude displayed is 2.5.

Coastal Water Temperatures

Place Temperature
No Stations Reporting

Nearby Weather Stations

There are no personal weather stations in this area.